Time;durP1;ratioP1;P1;durP2;ratioP2;P2;SDS_P1;SDS_P2;PMS_P1;PMS_P2;Temp;Humidity;BMP_temperature;BMP_pressure;BME280_temperature;BME280_humidity;BME280_pressure;Samples;Min_cycle;Max_cycle;Signal;HPM_P1;HPM_P2
2023/09/10 00:01:14;;;;;;;7.85;6.28;;;;;;;;;;5012832;28;20710;-86
2023/09/10 00:03:42;;;;;;;7.53;6.53;;;;;;;;;;5013487;28;20257;-86
2023/09/10 00:06:10;;;;;;;11.82;6.70;;;;;;;;;;5012434;28;20270;-86
2023/09/10 00:08:38;;;;;;;7.38;6.60;;;;;;;;;;5013719;28;20219;-87
2023/09/10 00:11:05;;;;;;;8.60;6.63;;;;;;;;;;5012101;28;20243;-85
2023/09/10 00:13:33;;;;;;;7.35;6.22;;;;;;;;;;5012981;28;20744;-86
2023/09/10 00:16:00;;;;;;;6.68;6.07;;;;;;;;;;5012136;28;20238;-86
2023/09/10 00:18:27;;;;;;;7.10;6.40;;;;;;;;;;5013577;28;20215;-86
2023/09/10 00:20:54;;;;;;;8.15;6.18;;;;;;;;;;5012314;28;20257;-87
2023/09/10 00:23:22;;;;;;;11.82;5.85;;;;;;;;;;5013007;28;20235;-87
2023/09/10 00:25:51;;;;;;;9.38;6.40;;;;;;;;;;5012190;28;20238;-86
2023/09/10 00:28:18;;;;;;;8.57;7.68;;;;;;;;;;5012875;28;20269;-86
2023/09/10 00:30:45;;;;;;;9.02;6.75;;;;;;;;;;5012416;28;20231;-86
2023/09/10 00:33:12;;;;;;;8.60;6.70;;;;;;;;;;4999069;28;20199;-87
2023/09/10 00:35:39;;;;;;;9.25;6.57;;;;;;;;;;5012508;28;20231;-85
2023/09/10 00:38:06;;;;;;;9.18;7.45;;;;;;;;;;5012552;28;20222;-86
2023/09/10 00:40:33;;;;;;;7.55;6.85;;;;;;;;;;5012345;28;20238;-86
2023/09/10 00:43:01;;;;;;;7.93;6.90;;;;;;;;;;5040696;23;20238;-89
2023/09/10 00:45:29;;;;;;;8.77;6.55;;;;;;;;;;5036602;28;20226;-89
2023/09/10 00:47:56;;;;;;;7.85;6.82;;;;;;;;;;5036744;28;20206;-90
2023/09/10 00:50:23;;;;;;;9.00;6.90;;;;;;;;;;5037412;28;20313;-89
2023/09/10 00:52:52;;;;;;;7.80;7.00;;;;;;;;;;5018082;28;20223;-89
2023/09/10 00:55:20;;;;;;;11.23;7.63;;;;;;;;;;5018938;28;20838;-89
2023/09/10 00:57:47;;;;;;;10.30;7.50;;;;;;;;;;5020383;28;20262;-90
2023/09/10 01:00:16;;;;;;;8.57;6.82;;;;;;;;;;5012853;28;20222;-89
2023/09/10 01:02:44;;;;;;;10.20;7.17;;;;;;;;;;5034875;28;20223;-89
2023/09/10 01:05:12;;;;;;;7.88;6.82;;;;;;;;;;5033269;28;20224;-89
2023/09/10 01:07:40;;;;;;;9.35;7.38;;;;;;;;;;5014345;28;20210;-90
2023/09/10 01:10:08;;;;;;;8.32;7.30;;;;;;;;;;5016242;28;20281;-89
2023/09/10 01:12:43;;;;;;;8.13;7.32;;;;;;;;;;5017930;28;20302;-89
2023/09/10 01:15:17;;;;;;;11.23;7.82;;;;;;;;;;5017437;28;20229;-90
2023/09/10 01:18:20;;;;;;;8.73;7.18;;;;;;;;;;5025834;28;20199;-90
2023/09/10 01:20:56;;;;;;;7.75;7.00;;;;;;;;;;5021297;28;20241;-89
2023/09/10 01:23:31;;;;;;;8.32;7.30;;;;;;;;;;5037042;28;20241;-90
2023/09/10 01:26:01;;;;;;;8.32;6.80;;;;;;;;;;5020274;28;20239;-91
2023/09/10 01:28:35;;;;;;;7.38;6.68;;;;;;;;;;5037218;28;20203;-90
2023/09/10 01:31:02;;;;;;;8.07;7.28;;;;;;;;;;5002627;28;20738;-90
2023/09/10 01:33:35;;;;;;;7.95;6.90;;;;;;;;;;5030834;28;20203;-90
2023/09/10 01:36:06;;;;;;;13.75;7.40;;;;;;;;;;5035311;28;20230;-91
2023/09/10 01:38:35;;;;;;;8.95;6.95;;;;;;;;;;5022434;28;20658;-90
2023/09/10 01:41:05;;;;;;;10.33;7.10;;;;;;;;;;5025948;28;20231;-91
2023/09/10 01:43:33;;;;;;;7.83;7.03;;;;;;;;;;5022772;28;20220;-90
2023/09/10 01:46:00;;;;;;;8.07;6.60;;;;;;;;;;5016496;28;20230;-90
2023/09/10 01:48:28;;;;;;;8.10;6.55;;;;;;;;;;5026274;28;20211;-90
2023/09/10 01:50:55;;;;;;;8.03;7.23;;;;;;;;;;5046812;28;20227;-90
2023/09/10 01:53:22;;;;;;;8.70;7.30;;;;;;;;;;5041421;28;20215;-88
2023/09/10 01:55:50;;;;;;;11.68;6.97;;;;;;;;;;5025141;28;20226;-90
2023/09/10 01:58:18;;;;;;;8.50;5.87;;;;;;;;;;5025756;28;20211;-90
2023/09/10 02:00:46;;;;;;;8.30;6.37;;;;;;;;;;5016496;28;20255;-90
2023/09/10 02:03:13;;;;;;;8.38;6.38;;;;;;;;;;5032067;28;20262;-90
2023/09/10 02:05:40;;;;;;;7.68;6.97;;;;;;;;;;5030396;28;20234;-91
2023/09/10 02:08:07;;;;;;;7.67;6.77;;;;;;;;;;5034035;28;20263;-90
2023/09/10 02:10:34;;;;;;;8.47;7.30;;;;;;;;;;5019464;28;20241;-90
2023/09/10 02:13:02;;;;;;;7.37;6.60;;;;;;;;;;5034149;28;20211;-90
2023/09/10 02:15:31;;;;;;;9.33;6.73;;;;;;;;;;5027703;28;20219;-90
2023/09/10 02:17:58;;;;;;;8.85;6.82;;;;;;;;;;5018802;28;20203;-90
2023/09/10 02:20:26;;;;;;;8.40;7.50;;;;;;;;;;5019286;28;20241;-90
2023/09/10 02:22:55;;;;;;;8.77;7.87;;;;;;;;;;5015519;28;20318;-90
2023/09/10 02:25:22;;;;;;;10.07;7.10;;;;;;;;;;5014402;28;20729;-90
2023/09/10 02:27:49;;;;;;;7.70;6.90;;;;;;;;;;5023442;28;20295;-91
2023/09/10 02:30:16;;;;;;;7.40;6.70;;;;;;;;;;5014963;28;20227;-91
2023/09/10 02:32:45;;;;;;;9.73;7.63;;;;;;;;;;5016505;28;20550;-90
2023/09/10 02:35:12;;;;;;;8.37;7.47;;;;;;;;;;5027618;28;20650;-90
2023/09/10 02:37:39;;;;;;;8.70;6.33;;;;;;;;;;5022152;28;20208;-91
2023/09/10 02:40:07;;;;;;;7.20;6.50;;;;;;;;;;5016187;28;20254;-90
2023/09/10 02:42:35;;;;;;;7.63;6.83;;;;;;;;;;5022314;28;20318;-91
2023/09/10 02:45:02;;;;;;;10.43;6.72;;;;;;;;;;5017978;28;20753;-90
2023/09/10 02:47:29;;;;;;;9.13;7.73;;;;;;;;;;5016150;28;20206;-90
2023/09/10 02:50:04;;;;;;;8.40;7.57;;;;;;;;;;5014807;28;20252;-90
2023/09/10 02:52:31;;;;;;;9.27;7.73;;;;;;;;;;5015309;28;20222;-90
2023/09/10 02:54:59;;;;;;;12.03;8.07;;;;;;;;;;5032190;28;20253;-90
2023/09/10 02:57:26;;;;;;;8.70;7.43;;;;;;;;;;5020922;28;20214;-90
2023/09/10 02:59:54;;;;;;;9.27;8.17;;;;;;;;;;5035305;28;20238;-90
2023/09/10 03:02:22;;;;;;;8.47;7.57;;;;;;;;;;5011971;28;20227;-90
2023/09/10 03:04:49;;;;;;;7.77;6.77;;;;;;;;;;5019648;28;20238;-90
2023/09/10 03:07:18;;;;;;;8.40;7.60;;;;;;;;;;5015069;28;20207;-90
2023/09/10 03:09:47;;;;;;;8.30;7.23;;;;;;;;;;5015579;28;20273;-90
2023/09/10 03:12:24;;;;;;;8.33;7.33;;;;;;;;;;5026800;28;20228;-91
2023/09/10 03:14:51;;;;;;;7.93;7.13;;;;;;;;;;5027950;28;20235;-90
2023/09/10 03:17:19;;;;;;;9.17;7.73;;;;;;;;;;5016267;28;20226;-90
2023/09/10 03:19:46;;;;;;;9.77;6.87;;;;;;;;;;5026388;28;20704;-90
2023/09/10 03:22:13;;;;;;;7.80;7.00;;;;;;;;;;5028575;28;20227;-89
2023/09/10 03:24:42;;;;;;;8.20;7.40;;;;;;;;;;5025338;28;20211;-90
2023/09/10 03:27:09;;;;;;;10.50;7.70;;;;;;;;;;5020736;28;20205;-91
2023/09/10 03:29:36;;;;;;;8.73;7.93;;;;;;;;;;5018928;28;20204;-90
2023/09/10 03:32:06;;;;;;;8.63;7.77;;;;;;;;;;5027239;28;20224;-90
2023/09/10 03:34:33;;;;;;;8.87;7.43;;;;;;;;;;5026039;28;20203;-90
2023/09/10 03:37:00;;;;;;;7.80;7.00;;;;;;;;;;5017900;28;20210;-90
2023/09/10 03:39:28;;;;;;;9.00;7.47;;;;;;;;;;5032687;28;20203;-89
2023/09/10 03:41:57;;;;;;;9.53;7.37;;;;;;;;;;5017766;28;20239;-90
2023/09/10 03:44:24;;;;;;;13.50;10.07;;;;;;;;;;5018501;28;20230;-90
2023/09/10 03:46:52;;;;;;;8.87;7.97;;;;;;;;;;5029133;28;20229;-90
2023/09/10 03:49:19;;;;;;;12.47;8.40;;;;;;;;;;5038116;28;20195;-90
2023/09/10 03:51:47;;;;;;;10.23;8.20;;;;;;;;;;5037782;28;20258;-90
2023/09/10 03:54:14;;;;;;;7.63;6.93;;;;;;;;;;5037427;28;20543;-90
2023/09/10 03:56:41;;;;;;;8.50;7.60;;;;;;;;;;5028273;28;20227;-90
2023/09/10 03:59:10;;;;;;;10.10;7.73;;;;;;;;;;5028168;28;20210;-90
2023/09/10 04:01:37;;;;;;;8.87;6.77;;;;;;;;;;5024266;28;20241;-90
2023/09/10 04:04:05;;;;;;;7.03;6.37;;;;;;;;;;5018155;28;20674;-90
2023/09/10 04:06:32;;;;;;;7.53;6.17;;;;;;;;;;5018000;28;20223;-90
2023/09/10 04:08:59;;;;;;;7.23;6.27;;;;;;;;;;5018284;28;20670;-90
2023/09/10 04:11:26;;;;;;;6.57;5.97;;;;;;;;;;5021548;28;20223;-90
2023/09/10 04:13:54;;;;;;;7.13;6.43;;;;;;;;;;5029739;28;20207;-90
2023/09/10 04:16:23;;;;;;;8.60;6.40;;;;;;;;;;5036914;28;20246;-89
2023/09/10 04:18:51;;;;;;;8.47;6.73;;;;;;;;;;5038352;28;20195;-90
2023/09/10 04:21:18;;;;;;;8.43;7.57;;;;;;;;;;5018393;28;20231;-90
2023/09/10 04:23:45;;;;;;;9.90;7.47;;;;;;;;;;5018276;28;20203;-90
2023/09/10 04:26:13;;;;;;;8.27;7.47;;;;;;;;;;5016708;28;20286;-90
2023/09/10 04:28:40;;;;;;;8.20;7.40;;;;;;;;;;5030513;28;20198;-90
2023/09/10 04:31:08;;;;;;;8.47;7.67;;;;;;;;;;5027144;28;20227;-90
2023/09/10 04:33:36;;;;;;;7.90;7.10;;;;;;;;;;5017411;28;20208;-89
2023/09/10 04:36:03;;;;;;;8.20;7.10;;;;;;;;;;5024548;28;20230;-89
2023/09/10 04:38:30;;;;;;;9.10;7.00;;;;;;;;;;5022633;28;20208;-89
2023/09/10 04:40:57;;;;;;;7.87;7.17;;;;;;;;;;5015533;28;20234;-90
2023/09/10 04:43:24;;;;;;;9.60;7.73;;;;;;;;;;5015511;28;20231;-89
2023/09/10 04:45:51;;;;;;;10.87;6.97;;;;;;;;;;5022986;28;20225;-89
2023/09/10 04:48:18;;;;;;;8.30;6.90;;;;;;;;;;5027688;28;20215;-89
2023/09/10 04:50:47;;;;;;;11.07;6.67;;;;;;;;;;5021508;28;20330;-89
2023/09/10 04:53:14;;;;;;;7.70;6.90;;;;;;;;;;5018081;28;20247;-89
2023/09/10 04:55:42;;;;;;;9.00;6.07;;;;;;;;;;5030413;28;20787;-89
2023/09/10 04:58:09;;;;;;;7.70;6.37;;;;;;;;;;5016323;28;20242;-90
2023/09/10 05:00:36;;;;;;;7.93;6.80;;;;;;;;;;5021032;28;20223;-89
2023/09/10 05:03:03;;;;;;;8.33;6.57;;;;;;;;;;5033546;28;20701;-89
2023/09/10 05:05:30;;;;;;;13.43;6.80;;;;;;;;;;5029088;28;20740;-89
2023/09/10 05:07:59;;;;;;;10.83;6.30;;;;;;;;;;5022157;28;20654;-88
2023/09/10 05:10:26;;;;;;;8.40;6.70;;;;;;;;;;5031345;28;20306;-89
2023/09/10 05:12:53;;;;;;;10.03;7.30;;;;;;;;;;5025705;28;20223;-89
2023/09/10 05:15:22;;;;;;;7.50;6.70;;;;;;;;;;5016095;28;20242;-90
2023/09/10 05:17:49;;;;;;;8.40;6.50;;;;;;;;;;5016521;28;20215;-89
2023/09/10 05:20:16;;;;;;;7.13;6.43;;;;;;;;;;5023443;28;20232;-89
2023/09/10 05:22:43;;;;;;;11.53;7.03;;;;;;;;;;5024096;28;20219;-89
2023/09/10 05:25:12;;;;;;;10.60;7.40;;;;;;;;;;5015674;28;20243;-90
2023/09/10 05:27:39;;;;;;;9.43;6.60;;;;;;;;;;5028221;28;20191;-90
2023/09/10 05:30:07;;;;;;;8.03;6.80;;;;;;;;;;5023039;28;20231;-89
2023/09/10 05:32:34;;;;;;;7.43;6.57;;;;;;;;;;5019922;28;20244;-89
2023/09/10 05:35:01;;;;;;;9.23;6.77;;;;;;;;;;5018471;28;20235;-89
2023/09/10 05:37:29;;;;;;;7.50;6.67;;;;;;;;;;5014275;28;20274;-89
2023/09/10 05:39:56;;;;;;;7.27;6.57;;;;;;;;;;5013534;28;20234;-89
2023/09/10 05:42:24;;;;;;;9.13;7.60;;;;;;;;;;5025666;28;20424;-89
2023/09/10 05:44:52;;;;;;;10.73;7.13;;;;;;;;;;5020269;28;20234;-89
2023/09/10 05:47:22;;;;;;;12.17;8.00;;;;;;;;;;5024891;28;20211;-90
2023/09/10 05:49:49;;;;;;;11.03;7.43;;;;;;;;;;5015536;28;20226;-90
2023/09/10 05:52:17;;;;;;;9.40;8.50;;;;;;;;;;5018320;28;20227;-90
2023/09/10 05:54:44;;;;;;;9.00;8.10;;;;;;;;;;5027878;28;20752;-90
2023/09/10 05:57:13;;;;;;;10.07;8.50;;;;;;;;;;5047523;28;20404;-91
2023/09/10 05:59:45;;;;;;;9.87;8.87;;;;;;;;;;5007114;28;20739;-91
2023/09/10 06:02:13;;;;;;;14.80;9.43;;;;;;;;;;5022074;28;20219;-90
2023/09/10 06:04:43;;;;;;;11.67;9.17;;;;;;;;;;5031464;28;20212;-92
2023/09/10 06:07:10;;;;;;;10.47;9.20;;;;;;;;;;5032239;28;20683;-86
2023/09/10 06:09:37;;;;;;;12.97;10.20;;;;;;;;;;5022881;28;20203;-86
2023/09/10 06:12:04;;;;;;;12.87;10.00;;;;;;;;;;5013996;28;20223;-86
2023/09/10 06:14:34;;;;;;;10.67;9.57;;;;;;;;;;5005527;28;20230;-87
2023/09/10 06:17:03;;;;;;;12.90;10.50;;;;;;;;;;5013842;28;20195;-86
2023/09/10 06:19:30;;;;;;;13.90;11.50;;;;;;;;;;5013395;28;20583;-87
2023/09/10 06:21:57;;;;;;;12.07;10.77;;;;;;;;;;5029452;28;20226;-87
2023/09/10 06:24:24;;;;;;;14.47;11.57;;;;;;;;;;5017261;28;20208;-86
2023/09/10 06:26:51;;;;;;;15.57;11.63;;;;;;;;;;5018682;28;20727;-86
2023/09/10 06:29:19;;;;;;;12.73;11.43;;;;;;;;;;5013394;28;20208;-87
2023/09/10 06:31:46;;;;;;;15.83;11.90;;;;;;;;;;5012802;28;20227;-86
2023/09/10 06:34:14;;;;;;;12.87;11.57;;;;;;;;;;5013518;28;20218;-87
2023/09/10 06:36:41;;;;;;;14.60;12.03;;;;;;;;;;5012968;28;20227;-86
2023/09/10 06:39:08;;;;;;;15.40;12.50;;;;;;;;;;5012496;28;20202;-86
2023/09/10 06:41:35;;;;;;;14.87;11.57;;;;;;;;;;5028929;28;20234;-86
2023/09/10 06:44:02;;;;;;;16.57;11.87;;;;;;;;;;5012759;28;20195;-87
2023/09/10 06:46:29;;;;;;;17.80;11.77;;;;;;;;;;5016065;28;20234;-87
2023/09/10 06:48:56;;;;;;;12.93;11.20;;;;;;;;;;5020109;28;20218;-87
2023/09/10 06:51:27;;;;;;;12.37;10.87;;;;;;;;;;5021452;28;20239;-87
2023/09/10 06:53:54;;;;;;;13.87;10.97;;;;;;;;;;5017000;28;20226;-87
2023/09/10 06:56:21;;;;;;;12.30;10.57;;;;;;;;;;5016579;28;20559;-86
2023/09/10 06:58:48;;;;;;;13.43;11.97;;;;;;;;;;5017261;28;20565;-87
2023/09/10 07:01:18;;;;;;;14.63;10.83;;;;;;;;;;5021836;28;20231;-86
2023/09/10 07:03:46;;;;;;;11.87;10.67;;;;;;;;;;5030720;28;20205;-87
2023/09/10 07:06:13;;;;;;;14.20;9.97;;;;;;;;;;5036064;28;20241;-86
2023/09/10 07:08:41;;;;;;;13.07;10.77;;;;;;;;;;5024768;28;20544;-87
2023/09/10 07:11:09;;;;;;;11.93;10.47;;;;;;;;;;5016602;28;20238;-86
2023/09/10 07:13:37;;;;;;;12.90;10.23;;;;;;;;;;5029542;28;20211;-87
2023/09/10 07:16:04;;;;;;;14.70;9.70;;;;;;;;;;5016635;28;20273;-87
2023/09/10 07:18:33;;;;;;;10.67;9.63;;;;;;;;;;5028394;28;20217;-87
2023/09/10 07:21:00;;;;;;;10.73;9.63;;;;;;;;;;5029243;28;20240;-87
2023/09/10 07:23:27;;;;;;;11.32;10.10;;;;;;;;;;5016817;28;20231;-86
2023/09/10 07:25:56;;;;;;;10.25;9.15;;;;;;;;;;5015559;28;20238;-87
2023/09/10 07:28:23;;;;;;;10.30;9.20;;;;;;;;;;5035037;28;20211;-87
2023/09/10 07:30:50;;;;;;;10.55;8.93;;;;;;;;;;5027831;28;20227;-86
2023/09/10 07:33:17;;;;;;;10.45;9.45;;;;;;;;;;5020792;28;20424;-92
2023/09/10 07:35:44;;;;;;;10.68;9.25;;;;;;;;;;5015944;28;20226;-85
2023/09/10 07:38:11;;;;;;;9.50;8.60;;;;;;;;;;5024476;28;20298;-84
2023/09/10 07:40:39;;;;;;;9.63;8.73;;;;;;;;;;5016289;28;20236;-87
2023/09/10 07:43:07;;;;;;;10.23;9.05;;;;;;;;;;5024354;28;20242;-86
2023/09/10 07:45:34;;;;;;;9.90;8.90;;;;;;;;;;5013755;28;20238;-87
2023/09/10 07:48:03;;;;;;;9.68;8.68;;;;;;;;;;5010359;28;20207;-87
2023/09/10 07:50:30;;;;;;;9.32;8.40;;;;;;;;;;5015815;28;20235;-87
2023/09/10 07:52:57;;;;;;;9.07;8.18;;;;;;;;;;5015988;28;20227;-87
2023/09/10 07:55:25;;;;;;;9.00;8.10;;;;;;;;;;5024489;28;20265;-88
2023/09/10 07:57:52;;;;;;;9.23;8.30;;;;;;;;;;5007553;28;20638;-87
2023/09/10 08:00:21;;;;;;;9.02;8.13;;;;;;;;;;5026114;28;20245;-88
2023/09/10 08:02:49;;;;;;;9.73;8.45;;;;;;;;;;5017506;28;20285;-87
2023/09/10 08:05:17;;;;;;;8.82;8.00;;;;;;;;;;5021383;28;20239;-88
2023/09/10 08:07:44;;;;;;;9.02;7.50;;;;;;;;;;5028200;28;20264;-88
2023/09/10 08:10:11;;;;;;;9.48;7.60;;;;;;;;;;5027542;28;20714;-88
2023/09/10 08:12:38;;;;;;;7.68;6.97;;;;;;;;;;5024447;28;20611;-88
2023/09/10 08:15:06;;;;;;;8.05;7.20;;;;;;;;;;5023655;28;20610;-88
2023/09/10 08:17:36;;;;;;;7.88;7.13;;;;;;;;;;5016148;28;20556;-87
2023/09/10 08:20:06;;;;;;;8.00;6.53;;;;;;;;;;5030282;28;20230;-87
2023/09/10 08:22:33;;;;;;;9.27;7.35;;;;;;;;;;5035732;28;20598;-88
2023/09/10 08:25:04;;;;;;;7.72;6.93;;;;;;;;;;5034436;28;20265;-87
2023/09/10 08:27:31;;;;;;;7.28;6.57;;;;;;;;;;5017957;28;20219;-88
2023/09/10 08:29:58;;;;;;;7.47;6.78;;;;;;;;;;5021338;28;20227;-87
2023/09/10 08:32:25;;;;;;;7.00;6.30;;;;;;;;;;5015877;28;20227;-88
2023/09/10 08:34:54;;;;;;;8.35;6.85;;;;;;;;;;5023931;28;20211;-87
2023/09/10 08:37:21;;;;;;;8.20;5.97;;;;;;;;;;5024463;28;20191;-89
2023/09/10 08:39:48;;;;;;;6.75;6.05;;;;;;;;;;5019894;28;20614;-85
2023/09/10 08:42:18;;;;;;;8.65;6.22;;;;;;;;;;5033685;28;20230;-85
2023/09/10 08:44:45;;;;;;;8.02;6.78;;;;;;;;;;5019117;28;20210;-87
2023/09/10 08:47:14;;;;;;;5.72;5.15;;;;;;;;;;5017965;28;20246;-91
2023/09/10 08:49:43;;;;;;;8.20;6.20;;;;;;;;;;5021423;28;20897;-90
2023/09/10 08:52:12;;;;;;;9.50;6.03;;;;;;;;;;5015029;28;20227;-91
2023/09/10 08:54:39;;;;;;;6.53;5.93;;;;;;;;;;5007495;28;20214;-90
2023/09/10 08:57:06;;;;;;;5.68;5.18;;;;;;;;;;5015173;28;20199;-91
2023/09/10 08:59:34;;;;;;;6.43;5.82;;;;;;;;;;5014841;28;20215;-91
2023/09/10 09:02:01;;;;;;;6.65;5.60;;;;;;;;;;5030890;28;20226;-92
2023/09/10 09:04:30;;;;;;;6.13;5.53;;;;;;;;;;5035889;28;20202;-91
2023/09/10 09:06:57;;;;;;;6.30;5.68;;;;;;;;;;5021889;28;20227;-91
2023/09/10 09:09:26;;;;;;;7.45;6.75;;;;;;;;;;5015509;28;20211;-90
2023/09/10 09:11:54;;;;;;;5.93;5.32;;;;;;;;;;5028436;28;20246;-90
2023/09/10 09:14:22;;;;;;;7.35;6.43;;;;;;;;;;5018157;28;20210;-91
2023/09/10 09:16:50;;;;;;;7.10;6.40;;;;;;;;;;5014934;28;20239;-91
2023/09/10 09:19:19;;;;;;;7.88;5.82;;;;;;;;;;5023736;28;20209;-90
2023/09/10 09:21:48;;;;;;;5.90;5.40;;;;;;;;;;5030233;28;20841;-89
2023/09/10 09:24:15;;;;;;;6.30;5.70;;;;;;;;;;5015333;28;20701;-90
2023/09/10 09:26:44;;;;;;;6.28;5.68;;;;;;;;;;5014160;28;20276;-88
2023/09/10 09:29:11;;;;;;;7.68;5.40;;;;;;;;;;5022586;28;20207;-90
2023/09/10 09:31:38;;;;;;;6.32;5.72;;;;;;;;;;5025323;28;20685;-93
2023/09/10 09:34:05;;;;;;;6.70;5.65;;;;;;;;;;5020701;28;20570;-92
2023/09/10 09:36:36;;;;;;;7.70;5.75;;;;;;;;;;5017406;28;20254;-90
2023/09/10 09:39:07;;;;;;;6.43;5.82;;;;;;;;;;5021106;28;20211;-91
2023/09/10 09:41:35;;;;;;;5.85;5.35;;;;;;;;;;5016352;28;20234;-90
2023/09/10 09:44:05;;;;;;;5.88;5.22;;;;;;;;;;5010973;28;20721;-90
2023/09/10 09:46:33;;;;;;;6.18;5.57;;;;;;;;;;5013161;28;20238;-90
2023/09/10 09:49:00;;;;;;;5.60;5.10;;;;;;;;;;5014658;28;20262;-91
2023/09/10 09:51:27;;;;;;;6.10;5.60;;;;;;;;;;5015416;28;20227;-90
2023/09/10 09:53:54;;;;;;;5.63;5.15;;;;;;;;;;5023262;28;20184;-92
2023/09/10 09:56:22;;;;;;;8.73;6.22;;;;;;;;;;5015146;28;20231;-91
2023/09/10 09:58:49;;;;;;;6.22;5.03;;;;;;;;;;5021119;28;20196;-90
2023/09/10 10:01:17;;;;;;;5.90;5.30;;;;;;;;;;5013273;28;20243;-91
2023/09/10 10:03:44;;;;;;;7.03;5.10;;;;;;;;;;5008515;28;20204;-89
2023/09/10 10:06:12;;;;;;;4.63;4.22;;;;;;;;;;5021795;28;20242;-92
2023/09/10 10:08:48;;;;;;;5.60;4.97;;;;;;;;;;5015056;28;20207;-92
2023/09/10 10:11:15;;;;;;;5.82;5.13;;;;;;;;;;5014493;28;20285;-92
2023/09/10 10:13:42;;;;;;;4.78;4.38;;;;;;;;;;5014922;28;20211;-93
2023/09/10 10:16:10;;;;;;;5.13;4.63;;;;;;;;;;5014608;28;20240;-91
2023/09/10 10:18:39;;;;;;;6.32;4.95;;;;;;;;;;5024989;28;20715;-93
2023/09/10 10:21:06;;;;;;;6.57;4.82;;;;;;;;;;5033711;28;20602;-91
2023/09/10 10:23:33;;;;;;;7.47;5.50;;;;;;;;;;5034529;28;20571;-90
2023/09/10 10:26:04;;;;;;;5.72;4.88;;;;;;;;;;5034515;28;20218;-92
2023/09/10 10:28:32;;;;;;;6.03;4.68;;;;;;;;;;5020415;28;20221;-93
2023/09/10 10:31:04;;;;;;;8.25;4.85;;;;;;;;;;5025295;28;20230;-92
2023/09/10 10:33:32;;;;;;;4.90;4.40;;;;;;;;;;5029400;28;20692;-92
2023/09/10 10:36:07;;;;;;;4.93;4.53;;;;;;;;;;5019588;28;20229;-92
2023/09/10 10:38:36;;;;;;;6.05;4.28;;;;;;;;;;5020361;28;20202;-89
2023/09/10 10:41:05;;;;;;;4.95;4.53;;;;;;;;;;5025572;28;20309;-93
2023/09/10 10:43:36;;;;;;;4.82;4.43;;;;;;;;;;5022090;28;20226;-94
2023/09/10 10:46:04;;;;;;;5.18;4.68;;;;;;;;;;5028093;28;20631;-94
2023/09/10 10:48:35;;;;;;;4.82;4.40;;;;;;;;;;5021511;28;20206;-92
2023/09/10 10:51:04;;;;;;;5.88;5.35;;;;;;;;;;5018054;28;20285;-93
2023/09/10 10:53:33;;;;;;;4.78;4.38;;;;;;;;;;5024161;28;20349;-94
2023/09/10 10:56:03;;;;;;;5.07;4.65;;;;;;;;;;5018909;28;20223;-95
2023/09/10 10:58:31;;;;;;;5.45;4.95;;;;;;;;;;5019547;28;20241;-95
2023/09/10 11:00:59;;;;;;;8.00;4.65;;;;;;;;;;5019213;28;20600;-94
2023/09/10 11:03:27;;;;;;;6.97;4.82;;;;;;;;;;5018849;28;20223;-94
2023/09/10 11:06:05;;;;;;;5.10;4.60;;;;;;;;;;5027403;28;20772;-94
2023/09/10 11:08:34;;;;;;;6.05;5.10;;;;;;;;;;5020611;28;20237;-94
2023/09/10 11:11:01;;;;;;;6.20;4.85;;;;;;;;;;5018420;28;20235;-94
2023/09/10 11:13:29;;;;;;;5.43;4.55;;;;;;;;;;5018145;28;20238;-94
2023/09/10 11:16:16;;;;;;;6.10;4.90;;;;;;;;;;5018054;28;20241;-94
2023/09/10 11:18:43;;;;;;;4.68;4.25;;;;;;;;;;5029180;28;20210;-94
2023/09/10 11:21:12;;;;;;;5.05;4.65;;;;;;;;;;5022826;28;20234;-94
2023/09/10 11:23:40;;;;;;;7.72;4.20;;;;;;;;;;5017601;28;20199;-92
2023/09/10 11:26:25;;;;;;;7.63;4.60;;;;;;;;;;5016943;28;20234;-93
2023/09/10 11:28:54;;;;;;;8.23;4.32;;;;;;;;;;5010895;28;20211;-93
2023/09/10 11:31:31;;;;;;;6.25;4.40;;;;;;;;;;5026260;28;20226;-93
2023/09/10 11:34:00;;;;;;;5.60;4.35;;;;;;;;;;5016336;28;20189;-93
2023/09/10 11:36:29;;;;;;;5.50;4.07;;;;;;;;;;5017996;28;20222;-93
2023/09/10 11:38:56;;;;;;;5.43;4.10;;;;;;;;;;5037584;28;20201;-93
2023/09/10 11:41:23;;;;;;;6.68;4.45;;;;;;;;;;5028616;28;20231;-93
2023/09/10 11:43:50;;;;;;;8.30;3.78;;;;;;;;;;5017792;28;20657;-94
2023/09/10 11:46:17;;;;;;;5.20;3.60;;;;;;;;;;5018523;28;20235;-94
2023/09/10 11:48:45;;;;;;;7.13;4.00;;;;;;;;;;5034659;28;20222;-94
2023/09/10 11:51:12;;;;;;;5.18;3.78;;;;;;;;;;5025370;28;20230;-93
2023/09/10 11:53:40;;;;;;;7.30;3.97;;;;;;;;;;5016926;28;20210;-90
2023/09/10 11:56:07;;;;;;;9.00;4.05;;;;;;;;;;5020665;28;20230;-93
2023/09/10 11:58:34;;;;;;;6.30;3.95;;;;;;;;;;5018879;28;20214;-96
2023/09/10 12:01:04;;;;;;;3.95;3.55;;;;;;;;;;5012823;28;20226;-86
2023/09/10 12:03:32;;;;;;;6.85;3.85;;;;;;;;;;5034302;28;20233;-86
2023/09/10 12:05:59;;;;;;;5.32;3.55;;;;;;;;;;5023849;28;20641;-86
2023/09/10 12:08:27;;;;;;;6.25;3.83;;;;;;;;;;5015762;28;20688;-86
2023/09/10 12:11:00;;;;;;;7.43;4.13;;;;;;;;;;5018699;28;20252;-86
2023/09/10 12:13:28;;;;;;;5.82;4.10;;;;;;;;;;5023595;28;20230;-86
2023/09/10 12:15:55;;;;;;;6.25;3.85;;;;;;;;;;5029911;28;20242;-88
2023/09/10 12:18:23;;;;;;;8.02;3.78;;;;;;;;;;5022303;28;20202;-89
2023/09/10 12:20:50;;;;;;;9.50;3.58;;;;;;;;;;5011820;28;20241;-89
2023/09/10 12:23:17;;;;;;;6.15;3.88;;;;;;;;;;5019350;28;20704;-87
2023/09/10 12:25:44;;;;;;;6.05;4.10;;;;;;;;;;5020458;28;20233;-88
2023/09/10 12:28:13;;;;;;;8.82;3.80;;;;;;;;;;5015195;28;20222;-88
2023/09/10 12:30:40;;;;;;;8.43;3.92;;;;;;;;;;5019716;28;20641;-88
2023/09/10 12:33:07;;;;;;;7.43;4.03;;;;;;;;;;5029774;28;20223;-88
2023/09/10 12:35:36;;;;;;;7.22;3.85;;;;;;;;;;5023445;28;20231;-88
2023/09/10 12:38:03;;;;;;;6.75;4.07;;;;;;;;;;5027269;28;20195;-88
2023/09/10 12:40:30;;;;;;;11.10;4.32;;;;;;;;;;5025920;28;20218;-88
2023/09/10 12:42:57;;;;;;;9.82;3.90;;;;;;;;;;5035088;23;20239;-93
2023/09/10 12:45:26;;;;;;;8.43;3.53;;;;;;;;;;5013361;28;20238;-94
2023/09/10 12:47:53;;;;;;;7.00;4.32;;;;;;;;;;5013888;28;20227;-93
2023/09/10 12:50:20;;;;;;;6.72;4.18;;;;;;;;;;5012757;28;20596;-93
2023/09/10 12:52:47;;;;;;;8.18;3.83;;;;;;;;;;5013321;28;20814;-94
2023/09/10 12:55:17;;;;;;;9.75;3.88;;;;;;;;;;5013273;28;20234;-94
2023/09/10 12:57:52;;;;;;;7.43;3.35;;;;;;;;;;5014321;28;20207;-94
2023/09/10 13:00:19;;;;;;;8.60;3.63;;;;;;;;;;5014079;28;20240;-93
2023/09/10 13:02:48;;;;;;;8.07;3.97;;;;;;;;;;5014223;28;20211;-93
2023/09/10 13:05:16;;;;;;;13.82;4.30;;;;;;;;;;5014163;28;20252;-93
2023/09/10 13:07:43;;;;;;;8.40;4.05;;;;;;;;;;5014456;28;20913;-94
2023/09/10 13:10:10;;;;;;;14.30;4.45;;;;;;;;;;5013329;28;20237;-92
2023/09/10 13:12:37;;;;;;;11.30;3.63;;;;;;;;;;5013327;28;20203;-93
2023/09/10 13:15:05;;;;;;;11.20;4.25;;;;;;;;;;5012796;28;20714;-93
2023/09/10 13:17:32;;;;;;;8.18;3.72;;;;;;;;;;5013474;28;20293;-94
2023/09/10 13:20:00;;;;;;;13.27;4.05;;;;;;;;;;5002254;28;20238;-94
2023/09/10 13:22:28;;;;;;;17.17;4.53;;;;;;;;;;5009577;28;20203;-93
2023/09/10 13:24:55;;;;;;;6.70;3.50;;;;;;;;;;5012524;28;20237;-93
2023/09/10 13:27:22;;;;;;;13.95;4.65;;;;;;;;;;5013320;28;20231;-94
2023/09/10 13:29:49;;;;;;;11.32;4.15;;;;;;;;;;5003302;28;20237;-94
2023/09/10 13:32:16;;;;;;;15.25;4.18;;;;;;;;;;5008364;28;20214;-94
2023/09/10 13:34:43;;;;;;;17.50;4.32;;;;;;;;;;5012921;28;20222;-94
2023/09/10 13:37:12;;;;;;;14.07;3.33;;;;;;;;;;5027355;28;20214;-94
2023/09/10 13:39:40;;;;;;;10.68;4.43;;;;;;;;;;5025962;28;20238;-94
2023/09/10 13:42:08;;;;;;;12.10;4.35;;;;;;;;;;5035428;28;20195;-94
2023/09/10 13:44:35;;;;;;;10.77;3.92;;;;;;;;;;5014448;28;20730;-95
2023/09/10 13:47:02;;;;;;;14.68;3.53;;;;;;;;;;5014522;28;20653;-94
2023/09/10 13:49:29;;;;;;;13.85;4.10;;;;;;;;;;5015140;28;20202;-94
2023/09/10 13:51:56;;;;;;;13.90;5.00;;;;;;;;;;5014312;28;20217;-94
2023/09/10 13:54:25;;;;;;;12.15;4.45;;;;;;;;;;5013057;28;20219;-94
2023/09/10 13:56:52;;;;;;;11.13;4.05;;;;;;;;;;5011471;28;20238;-94
2023/09/10 13:59:19;;;;;;;13.30;4.60;;;;;;;;;;5008699;28;20207;-93
2023/09/10 14:01:46;;;;;;;8.70;3.72;;;;;;;;;;5010250;28;20230;-93
2023/09/10 14:04:13;;;;;;;12.18;4.43;;;;;;;;;;5006605;28;20235;-94
2023/09/10 14:06:41;;;;;;;10.55;3.50;;;;;;;;;;5012813;28;20243;-93
2023/09/10 14:09:08;;;;;;;8.20;3.97;;;;;;;;;;5009339;28;20229;-93
2023/09/10 14:11:36;;;;;;;13.65;4.43;;;;;;;;;;5011822;28;20226;-92
2023/09/10 14:14:03;;;;;;;10.48;4.13;;;;;;;;;;5011096;28;20272;-93
2023/09/10 14:16:31;;;;;;;12.15;4.10;;;;;;;;;;5011784;28;20231;-93
2023/09/10 14:18:58;;;;;;;9.60;4.13;;;;;;;;;;5012295;28;20203;-91
2023/09/10 14:21:26;;;;;;;14.43;4.40;;;;;;;;;;5011943;28;20258;-92
2023/09/10 14:23:53;;;;;;;13.98;4.57;;;;;;;;;;5011974;28;20231;-92
2023/09/10 14:26:20;;;;;;;11.00;4.47;;;;;;;;;;5011118;28;20607;-92
2023/09/10 14:28:49;;;;;;;9.57;3.55;;;;;;;;;;5011535;28;20678;-92
2023/09/10 14:31:16;;;;;;;8.38;3.70;;;;;;;;;;5011661;28;20231;-94
2023/09/10 14:33:43;;;;;;;10.80;3.72;;;;;;;;;;5019751;28;20589;-93
2023/09/10 14:36:10;;;;;;;13.07;4.50;;;;;;;;;;5011415;28;20230;-93
2023/09/10 14:38:37;;;;;;;7.32;3.70;;;;;;;;;;5012549;28;20208;-92
2023/09/10 14:41:04;;;;;;;13.05;4.05;;;;;;;;;;5011227;28;20242;-91
2023/09/10 14:43:31;;;;;;;7.20;3.47;;;;;;;;;;5011926;28;20250;-92